Time;durP1;ratioP1;P1;durP2;ratioP2;P2;SDS_P1;SDS_P2;PMS_P1;PMS_P2;Temp;Humidity;BMP_temperature;BMP_pressure;BME280_temperature;BME280_humidity;BME280_pressure;Samples;Min_cycle;Max_cycle;Signal;HPM_P1;HPM_P2
2023/09/02 00:00:12;;;;;;;40.05;17.92;;;17.40;99.90;;;;;;5054408;28;20545;-53
2023/09/02 00:02:38;;;;;;;43.05;19.33;;;17.30;99.90;;;;;;5054376;28;20082;-54
2023/09/02 00:05:23;;;;;;;44.10;17.88;;;17.40;99.90;;;;;;5055315;28;20421;-53
2023/09/02 00:07:48;;;;;;;46.20;17.98;;;17.30;99.90;;;;;;5040212;28;20033;-54
2023/09/02 00:10:14;;;;;;;49.63;19.70;;;17.30;99.90;;;;;;5054979;28;20497;-55
2023/09/02 00:12:41;;;;;;;47.95;18.33;;;17.30;99.90;;;;;;5054794;28;20095;-53
2023/09/02 00:15:07;;;;;;;45.22;18.88;;;17.30;99.90;;;;;;5055452;28;20028;-54
2023/09/02 00:17:35;;;;;;;53.50;21.38;;;17.30;99.90;;;;;;5054318;28;20473;-54
2023/09/02 00:20:04;;;;;;;47.83;19.85;;;17.30;99.90;;;;;;5054911;28;20093;-54
2023/09/02 00:22:31;;;;;;;48.42;19.75;;;17.30;99.90;;;;;;5053776;28;20033;-50
2023/09/02 00:24:56;;;;;;;50.42;19.58;;;17.30;99.90;;;;;;5054088;28;20504;-53
2023/09/02 00:27:22;;;;;;;45.22;19.08;;;17.20;99.90;;;;;;5054696;28;20099;-55
2023/09/02 00:29:48;;;;;;;46.97;19.65;;;17.20;99.90;;;;;;5054405;28;20041;-53
2023/09/02 00:32:13;;;;;;;45.70;17.75;;;17.20;99.90;;;;;;5037033;28;20041;-53
2023/09/02 00:34:39;;;;;;;48.58;18.13;;;17.20;99.90;;;;;;5068156;28;20063;-54
2023/09/02 00:37:05;;;;;;;45.53;17.50;;;17.10;99.90;;;;;;5053161;28;20542;-52
2023/09/02 00:39:31;;;;;;;39.45;18.25;;;17.10;99.90;;;;;;5054336;28;20112;-54
2023/09/02 00:41:59;;;;;;;38.67;16.73;;;17.10;99.90;;;;;;5054223;28;20115;-54
2023/09/02 00:44:25;;;;;;;36.95;16.77;;;17.00;99.90;;;;;;5054347;28;20043;-53
2023/09/02 00:46:51;;;;;;;39.53;16.83;;;17.00;99.90;;;;;;5050458;28;20035;-52
2023/09/02 00:49:17;;;;;;;37.90;16.67;;;17.00;99.90;;;;;;5048976;28;20028;-54
2023/09/02 00:51:43;;;;;;;41.90;17.20;;;17.00;99.90;;;;;;5052483;28;20021;-53
2023/09/02 00:54:08;;;;;;;42.50;17.98;;;17.00;99.90;;;;;;5050883;28;20083;-51
2023/09/02 00:56:37;;;;;;;39.63;17.77;;;17.00;99.90;;;;;;5042642;28;20497;-54
2023/09/02 00:59:04;;;;;;;41.95;18.42;;;17.00;99.90;;;;;;5054122;28;20710;-54
2023/09/02 01:01:32;;;;;;;38.72;18.27;;;17.00;99.90;;;;;;5052820;28;20032;-55
2023/09/02 01:03:59;;;;;;;40.38;17.90;;;17.00;99.90;;;;;;5035590;28;20482;-53
2023/09/02 01:06:25;;;;;;;38.70;17.02;;;17.00;99.90;;;;;;5052112;28;20110;-53
2023/09/02 01:08:51;;;;;;;46.10;17.08;;;16.90;99.90;;;;;;5052032;28;20031;-54
2023/09/02 01:11:17;;;;;;;33.63;15.68;;;16.90;99.90;;;;;;5053732;28;20555;-53
2023/09/02 01:13:43;;;;;;;40.78;16.45;;;16.90;99.90;;;;;;5053632;28;20032;-54
2023/09/02 01:16:08;;;;;;;33.85;16.25;;;16.90;99.90;;;;;;5052346;28;20040;-54
2023/09/02 01:18:36;;;;;;;36.25;17.48;;;16.90;99.90;;;;;;5053679;28;20021;-51
2023/09/02 01:21:08;;;;;;;;;;;16.90;99.90;;;;;;5053111;28;20397;-53
2023/09/02 01:24:02;;;;;;;42.20;17.40;;;16.90;99.90;;;;;;5045384;28;19908;-53
2023/09/02 01:26:49;;;;;;;38.40;15.93;;;16.90;99.90;;;;;;5052251;28;20028;-53
2023/09/02 01:29:20;;;;;;;42.28;17.52;;;16.90;99.90;;;;;;5053293;28;20044;-53
2023/09/02 01:31:47;;;;;;;46.60;18.42;;;16.90;99.90;;;;;;5053719;28;20368;-53
2023/09/02 01:34:15;;;;;;;;;;;16.90;99.90;;;;;;5053441;28;20017;-53
2023/09/02 01:36:46;;;;;;;36.10;15.75;;;16.80;99.90;;;;;;5051310;28;19948;-54
2023/09/02 01:39:14;;;;;;;41.72;17.75;;;16.90;99.90;;;;;;5053223;28;20021;-53
2023/09/02 01:41:41;;;;;;;41.72;17.70;;;16.80;99.90;;;;;;5053174;28;20482;-49
2023/09/02 01:44:10;;;;;;;42.63;17.83;;;16.80;99.90;;;;;;5052221;28;20032;-53
2023/09/02 01:46:36;;;;;;;39.03;18.48;;;16.80;99.90;;;;;;5053152;28;20033;-54
2023/09/02 01:49:02;;;;;;;37.80;17.67;;;16.90;99.90;;;;;;5052981;28;20543;-53
2023/09/02 01:51:29;;;;;;;46.83;17.48;;;16.90;99.90;;;;;;5051904;28;20075;-54
2023/09/02 01:53:55;;;;;;;48.40;19.58;;;16.90;99.90;;;;;;5053045;28;20052;-53
2023/09/02 01:56:21;;;;;;;39.03;16.70;;;16.90;99.90;;;;;;5052915;28;20021;-52
2023/09/02 01:58:49;;;;;;;44.28;18.88;;;16.80;99.90;;;;;;5052995;28;20516;-54
2023/09/02 02:01:15;;;;;;;43.25;17.65;;;16.80;99.90;;;;;;5051860;28;20456;-52
2023/09/02 02:04:07;;;;;;;42.42;18.70;;;16.80;99.90;;;;;;5052882;28;20471;-51
2023/09/02 02:06:35;;;;;;;45.83;18.10;;;16.80;99.90;;;;;;5047078;28;20049;-54
2023/09/02 02:09:12;;;;;;;42.58;17.85;;;16.80;99.90;;;;;;5048630;28;20068;-54
2023/09/02 02:11:38;;;;;;;39.42;17.52;;;16.80;99.90;;;;;;5040764;28;20068;-53
2023/09/02 02:14:06;;;;;;;43.40;17.60;;;16.80;99.90;;;;;;5053061;28;20511;-53
2023/09/02 02:16:32;;;;;;;49.85;18.63;;;16.80;99.90;;;;;;5050953;28;20056;-51
2023/09/02 02:18:59;;;;;;;45.20;16.75;;;16.80;99.90;;;;;;5051224;28;20025;-54
2023/09/02 02:21:28;;;;;;;37.92;17.17;;;16.70;99.90;;;;;;5050397;28;20031;-53
2023/09/02 02:23:54;;;;;;;47.38;17.05;;;16.70;99.90;;;;;;5052266;28;20029;-52
2023/09/02 02:26:20;;;;;;;39.88;16.70;;;16.70;99.90;;;;;;5052628;28;20477;-53
2023/09/02 02:28:46;;;;;;;35.85;16.65;;;16.80;99.90;;;;;;5028100;28;20489;-54
2023/09/02 02:31:12;;;;;;;34.30;15.35;;;16.80;99.90;;;;;;5032107;28;20116;-53
2023/09/02 02:33:38;;;;;;;42.58;16.67;;;16.80;99.90;;;;;;5043043;28;20103;-52
2023/09/02 02:36:05;;;;;;;31.58;14.90;;;16.70;99.90;;;;;;5040835;28;20017;-54
2023/09/02 02:38:31;;;;;;;31.90;14.52;;;16.70;99.90;;;;;;5051230;28;20043;-59
2023/09/02 02:40:56;;;;;;;31.25;15.20;;;16.80;99.90;;;;;;5052232;28;20017;-54
2023/09/02 02:43:28;;;;;;;39.40;16.85;;;16.70;99.90;;;;;;5052519;28;20112;-54
2023/09/02 02:45:54;;;;;;;50.63;18.08;;;16.70;99.90;;;;;;5051893;28;20543;-51
2023/09/02 02:48:22;;;;;;;38.67;16.50;;;16.70;99.90;;;;;;5052387;28;20029;-54
2023/09/02 02:50:47;;;;;;;35.60;15.43;;;16.60;99.90;;;;;;5050784;28;20404;-54
2023/09/02 02:53:13;;;;;;;41.72;15.98;;;16.70;99.90;;;;;;5051487;28;20108;-53
2023/09/02 02:55:39;;;;;;;30.60;14.18;;;16.70;99.90;;;;;;5052428;28;20032;-52
2023/09/02 02:58:04;;;;;;;39.13;16.65;;;16.80;99.90;;;;;;5052170;28;20465;-53
2023/09/02 03:00:30;;;;;;;49.33;16.02;;;16.80;99.90;;;;;;5050833;28;20029;-52
2023/09/02 03:02:56;;;;;;;36.17;16.60;;;16.80;99.90;;;;;;5051657;28;20083;-52
2023/09/02 03:05:21;;;;;;;33.47;14.65;;;16.70;99.90;;;;;;5052529;28;20025;-54
2023/09/02 03:07:48;;;;;;;37.08;15.35;;;16.70;99.90;;;;;;5044991;28;20355;-52
2023/09/02 03:10:13;;;;;;;34.67;15.40;;;16.70;99.90;;;;;;5032339;28;20501;-54
2023/09/02 03:12:39;;;;;;;41.45;15.20;;;16.70;99.90;;;;;;5032230;28;20022;-54
2023/09/02 03:15:05;;;;;;;31.33;14.73;;;16.80;99.90;;;;;;5022368;28;20052;-54
2023/09/02 03:17:31;;;;;;;43.53;15.80;;;16.80;99.90;;;;;;5051956;28;20477;-54
2023/09/02 03:19:57;;;;;;;28.38;15.05;;;16.90;99.90;;;;;;5052162;28;20028;-53
2023/09/02 03:22:22;;;;;;;45.22;16.83;;;16.90;99.90;;;;;;5033450;28;20108;-54
2023/09/02 03:24:54;;;;;;;28.77;14.18;;;16.90;99.90;;;;;;5051300;28;20115;-53
2023/09/02 03:27:20;;;;;;;44.08;15.57;;;16.80;99.90;;;;;;5051362;28;20381;-53
2023/09/02 03:29:49;;;;;;;28.75;14.38;;;16.80;99.90;;;;;;5051790;28;20525;-51
2023/09/02 03:32:15;;;;;;;27.02;13.80;;;16.80;99.90;;;;;;5053127;28;20064;-54
2023/09/02 03:34:40;;;;;;;27.20;13.63;;;16.80;99.90;;;;;;5055607;28;20422;-53
2023/09/02 03:37:06;;;;;;;24.73;12.35;;;16.80;99.90;;;;;;5054527;28;20474;-53
2023/09/02 03:39:33;;;;;;;46.78;13.55;;;16.80;99.90;;;;;;5054787;28;20104;-53
2023/09/02 03:41:59;;;;;;;25.58;13.13;;;16.80;99.90;;;;;;5052760;28;20061;-53
2023/09/02 03:44:25;;;;;;;27.42;12.05;;;16.80;99.90;;;;;;5049553;28;20457;-54
2023/09/02 03:46:51;;;;;;;19.17;11.35;;;16.80;99.90;;;;;;5052488;28;20078;-53
2023/09/02 03:49:17;;;;;;;22.73;11.13;;;16.70;99.90;;;;;;5053088;28;20060;-52
2023/09/02 03:51:42;;;;;;;22.75;11.38;;;16.70;99.90;;;;;;5050149;28;20076;-54
2023/09/02 03:54:09;;;;;;;21.60;11.77;;;16.70;99.90;;;;;;5053190;28;20437;-57
2023/09/02 03:56:36;;;;;;;21.25;11.15;;;16.70;99.90;;;;;;5054356;28;20021;-54
2023/09/02 03:59:03;;;;;;;20.70;10.48;;;16.70;99.90;;;;;;5052514;28;20048;-53
2023/09/02 04:01:30;;;;;;;19.40;10.52;;;16.70;99.90;;;;;;5050035;28;20053;-53
2023/09/02 04:03:56;;;;;;;22.38;11.45;;;16.70;99.90;;;;;;5053447;28;20029;-52
2023/09/02 04:06:22;;;;;;;17.13;10.07;;;16.70;99.90;;;;;;5052956;28;20037;-54
2023/09/02 04:08:47;;;;;;;22.48;10.82;;;16.60;99.90;;;;;;5051960;28;20440;-53
2023/09/02 04:11:13;;;;;;;17.40;10.95;;;16.60;99.90;;;;;;5053274;28;20067;-54
2023/09/02 04:13:39;;;;;;;19.48;10.25;;;16.60;99.90;;;;;;5053942;28;20087;-55
2023/09/02 04:16:05;;;;;;;15.85;9.23;;;16.70;99.90;;;;;;5049562;28;20021;-50
2023/09/02 04:18:31;;;;;;;18.38;9.27;;;16.70;99.90;;;;;;5045277;28;20029;-53
2023/09/02 04:20:59;;;;;;;20.88;10.18;;;16.70;99.90;;;;;;5053226;28;20429;-51
2023/09/02 04:23:25;;;;;;;31.85;10.35;;;16.60;99.90;;;;;;5052762;28;20036;-54
2023/09/02 04:25:53;;;;;;;16.45;9.40;;;16.50;99.90;;;;;;5054313;28;20029;-54
2023/09/02 04:28:19;;;;;;;20.77;10.57;;;16.40;99.90;;;;;;5053748;28;20033;-53
2023/09/02 04:30:46;;;;;;;15.43;9.20;;;16.40;99.90;;;;;;5050778;28;20045;-53
2023/09/02 04:33:12;;;;;;;16.08;9.05;;;16.40;99.90;;;;;;5050663;28;20044;-54
2023/09/02 04:35:39;;;;;;;15.23;9.25;;;16.50;99.90;;;;;;5053500;28;20485;-52
2023/09/02 04:38:06;;;;;;;9.70;6.15;;;16.50;99.90;;;;;;5038155;28;20587;-53
2023/09/02 04:40:36;;;;;;;13.30;8.35;;;16.50;99.90;;;;;;5049456;28;20036;-53
2023/09/02 04:43:03;;;;;;;17.17;9.98;;;16.60;99.90;;;;;;5044480;28;20118;-53
2023/09/02 04:45:31;;;;;;;13.15;8.35;;;16.50;99.90;;;;;;5053151;28;20025;-51
2023/09/02 04:47:57;;;;;;;12.93;8.18;;;16.50;99.90;;;;;;5054026;28;20150;-51
2023/09/02 04:50:23;;;;;;;19.75;10.38;;;16.50;99.90;;;;;;5051391;28;20112;-53
2023/09/02 04:52:49;;;;;;;21.58;9.45;;;16.50;99.90;;;;;;5052649;28;20179;-52
2023/09/02 04:55:16;;;;;;;17.23;9.75;;;16.40;99.90;;;;;;5045490;28;20110;-51
2023/09/02 04:57:41;;;;;;;14.48;9.20;;;16.40;99.90;;;;;;5046992;28;20363;-53
2023/09/02 05:00:08;;;;;;;16.60;9.75;;;16.30;99.90;;;;;;5052803;28;20031;-54
2023/09/02 05:02:34;;;;;;;10.13;6.57;;;16.40;99.90;;;;;;5053658;28;20393;-55
2023/09/02 05:04:59;;;;;;;16.17;9.70;;;16.40;99.90;;;;;;5053866;28;20021;-54
2023/09/02 05:07:25;;;;;;;13.93;9.05;;;16.40;99.90;;;;;;5052913;28;20041;-54
2023/09/02 05:09:51;;;;;;;17.48;10.45;;;16.40;99.90;;;;;;5052914;28;20112;-53
2023/09/02 05:12:16;;;;;;;16.13;9.50;;;16.40;99.90;;;;;;5053682;28;20486;-53
2023/09/02 05:14:42;;;;;;;35.08;10.43;;;16.40;99.90;;;;;;5053595;28;20094;-54
2023/09/02 05:17:08;;;;;;;43.08;9.50;;;16.30;99.90;;;;;;5052721;28;20474;-54
2023/09/02 05:19:33;;;;;;;18.55;10.00;;;16.20;99.90;;;;;;5052821;28;20025;-54
2023/09/02 05:21:59;;;;;;;21.88;10.05;;;16.20;99.90;;;;;;5053844;28;20398;-54
2023/09/02 05:24:24;;;;;;;26.73;10.52;;;16.20;99.90;;;;;;5051750;28;20075;-53
2023/09/02 05:26:50;;;;;;;36.45;11.02;;;16.20;99.90;;;;;;5053467;28;20060;-53
2023/09/02 05:29:16;;;;;;;31.42;10.63;;;16.10;99.90;;;;;;5052879;28;20545;-54
2023/09/02 05:31:41;;;;;;;45.75;11.13;;;16.10;99.90;;;;;;5053260;28;20116;-58
2023/09/02 05:34:07;;;;;;;27.10;11.27;;;16.20;99.90;;;;;;5052631;28;20028;-50
2023/09/02 05:36:33;;;;;;;31.73;12.70;;;16.10;99.90;;;;;;5053615;28;20032;-53
2023/09/02 05:38:58;;;;;;;55.42;14.05;;;16.20;99.90;;;;;;5053598;28;20132;-53
2023/09/02 05:41:24;;;;;;;31.50;14.10;;;16.10;99.90;;;;;;5051537;28;20028;-54
2023/09/02 05:43:50;;;;;;;28.67;12.82;;;16.10;99.90;;;;;;5053487;28;20033;-53
2023/09/02 05:46:16;;;;;;;25.70;12.55;;;16.10;99.90;;;;;;5053501;28;20099;-52
2023/09/02 05:48:41;;;;;;;50.30;11.73;;;16.20;99.90;;;;;;5053011;28;20025;-53
2023/09/02 05:51:07;;;;;;;30.83;12.45;;;16.20;99.90;;;;;;5053115;28;20684;-54
2023/09/02 05:53:33;;;;;;;38.42;12.02;;;16.20;99.90;;;;;;5051959;28;20465;-54
2023/09/02 05:55:58;;;;;;;30.45;11.35;;;16.20;99.90;;;;;;5052009;28;20021;-54
2023/09/02 05:58:26;;;;;;;30.23;10.98;;;16.20;99.90;;;;;;5051771;28;20079;-53
2023/09/02 06:00:51;;;;;;;36.92;10.02;;;16.30;99.90;;;;;;5047968;28;20021;-54
2023/09/02 06:03:17;;;;;;;54.45;11.48;;;16.20;99.90;;;;;;5048259;28;20021;-55
2023/09/02 06:05:43;;;;;;;29.05;10.55;;;16.30;99.90;;;;;;5051827;28;20107;-54
2023/09/02 06:08:09;;;;;;;34.45;9.40;;;16.20;99.90;;;;;;5052630;28;20025;-52
2023/09/02 06:10:35;;;;;;;29.70;8.68;;;16.20;99.90;;;;;;5050308;28;20443;-53
2023/09/02 06:13:01;;;;;;;46.50;10.80;;;16.20;99.90;;;;;;5041425;28;20492;-52
2023/09/02 06:15:27;;;;;;;36.50;9.40;;;16.20;99.90;;;;;;5052075;28;20025;-53
2023/09/02 06:17:52;;;;;;;31.50;9.93;;;16.10;99.90;;;;;;5052754;28;20032;-54
2023/09/02 06:20:20;;;;;;;26.77;10.27;;;16.10;99.90;;;;;;5052199;28;20110;-53
2023/09/02 06:22:46;;;;;;;18.10;8.85;;;16.10;99.90;;;;;;5052537;28;20025;-54
2023/09/02 06:25:13;;;;;;;18.95;9.02;;;16.20;99.90;;;;;;5051961;28;20028;-54
2023/09/02 06:27:38;;;;;;;39.72;11.02;;;16.20;99.90;;;;;;5052532;28;20041;-53
2023/09/02 06:30:06;;;;;;;29.23;11.70;;;16.20;99.90;;;;;;5052533;28;20422;-53
2023/09/02 06:32:33;;;;;;;33.87;10.93;;;16.20;99.90;;;;;;5039652;28;20292;-51
2023/09/02 06:34:58;;;;;;;34.33;10.90;;;16.20;99.90;;;;;;5032934;28;20033;-53
2023/09/02 06:37:28;;;;;;;30.90;11.10;;;16.20;99.90;;;;;;5032924;28;20032;-53
2023/09/02 06:39:54;;;;;;;24.10;11.20;;;16.20;99.90;;;;;;5047497;28;20021;-52
2023/09/02 06:42:20;;;;;;;26.63;10.98;;;16.30;99.90;;;;;;5051309;28;20109;-54
2023/09/02 06:44:47;;;;;;;36.65;11.38;;;16.30;99.90;;;;;;5052415;28;20036;-54
2023/09/02 06:47:14;;;;;;;36.25;11.52;;;16.40;99.90;;;;;;5052415;28;20058;-50
2023/09/02 06:49:39;;;;;;;25.63;10.48;;;16.30;99.90;;;;;;5051997;28;20036;-54
2023/09/02 06:52:05;;;;;;;34.17;11.45;;;16.40;99.90;;;;;;5052386;28;20404;-54
2023/09/02 06:54:30;;;;;;;25.70;10.90;;;16.40;99.90;;;;;;5052458;28;20393;-54
2023/09/02 06:56:56;;;;;;;27.08;11.02;;;16.50;99.90;;;;;;5047914;28;20624;-52
2023/09/02 06:59:25;;;;;;;27.00;11.13;;;16.50;99.90;;;;;;5051561;28;20031;-53
2023/09/02 07:01:51;;;;;;;34.78;12.25;;;16.50;99.90;;;;;;5051959;28;20112;-53
2023/09/02 07:04:17;;;;;;;27.33;10.82;;;16.40;99.90;;;;;;5034460;28;20382;-55
2023/09/02 07:06:43;;;;;;;36.20;11.98;;;16.40;99.90;;;;;;5052682;28;20032;-54
2023/09/02 07:09:08;;;;;;;35.88;11.55;;;16.50;99.90;;;;;;5054083;28;20185;-54
2023/09/02 07:11:34;;;;;;;24.95;10.57;;;16.50;99.90;;;;;;5055693;28;20497;-54
2023/09/02 07:14:00;;;;;;;26.25;10.55;;;16.60;99.90;;;;;;5055940;28;20394;-54
2023/09/02 07:16:26;;;;;;;29.25;12.07;;;16.60;99.90;;;;;;5056015;28;20024;-50
2023/09/02 07:18:52;;;;;;;40.22;12.57;;;16.70;99.90;;;;;;5055972;28;20060;-54
2023/09/02 07:21:22;;;;;;;36.92;12.15;;;16.70;99.90;;;;;;5055139;28;20493;-54
2023/09/02 07:23:48;;;;;;;40.35;13.63;;;16.70;99.90;;;;;;5055086;28;20036;-54
2023/09/02 07:26:14;;;;;;;39.38;13.02;;;16.60;99.90;;;;;;5038000;28;20389;-54
2023/09/02 07:28:42;;;;;;;38.88;13.07;;;16.60;99.90;;;;;;5037508;28;20115;-53
2023/09/02 07:31:11;;;;;;;33.22;12.80;;;16.60;99.90;;;;;;5055210;28;20497;-54
2023/09/02 07:33:37;;;;;;;34.67;12.68;;;16.60;99.90;;;;;;5055785;28;20029;-55
2023/09/02 07:36:10;;;;;;;38.03;14.18;;;16.60;99.90;;;;;;5055250;28;20481;-52
2023/09/02 07:38:36;;;;;;;36.75;12.90;;;16.60;99.90;;;;;;5054824;28;20029;-53
2023/09/02 07:41:01;;;;;;;38.10;12.63;;;16.70;99.90;;;;;;5054626;28;20388;-53
2023/09/02 07:43:27;;;;;;;34.00;12.25;;;16.70;99.90;;;;;;5055359;28;20037;-52
2023/09/02 07:45:54;;;;;;;41.17;14.93;;;16.80;99.90;;;;;;5055490;28;20110;-54
2023/09/02 07:48:19;;;;;;;42.20;14.27;;;16.80;99.90;;;;;;5055262;28;20033;-53
2023/09/02 07:50:45;;;;;;;49.22;14.52;;;16.80;99.90;;;;;;5055368;28;20033;-52
2023/09/02 07:53:11;;;;;;;40.47;12.55;;;16.80;99.90;;;;;;5053835;28;20401;-49
2023/09/02 07:55:37;;;;;;;36.60;13.35;;;16.70;99.90;;;;;;5036109;28;20017;-54
2023/09/02 07:58:03;;;;;;;38.30;13.43;;;16.80;99.90;;;;;;5036259;28;20057;-52
2023/09/02 08:00:29;;;;;;;32.70;12.02;;;16.80;99.90;;;;;;5035437;28;20470;-53
2023/09/02 08:02:55;;;;;;;35.45;12.05;;;16.80;99.90;;;;;;5035496;28;20036;-54
2023/09/02 08:05:22;;;;;;;31.08;12.63;;;17.00;99.90;;;;;;5025637;28;20100;-51
2023/09/02 08:07:47;;;;;;;38.25;13.57;;;17.00;99.90;;;;;;5055260;28;20039;-54
2023/09/02 08:10:13;;;;;;;45.92;15.85;;;17.00;99.90;;;;;;5055086;28;20108;-53
2023/09/02 08:12:39;;;;;;;37.33;15.32;;;17.10;99.90;;;;;;5040668;28;20020;-53
2023/09/02 08:15:05;;;;;;;41.28;13.50;;;17.20;99.90;;;;;;5047610;28;20488;-49
2023/09/02 08:17:39;;;;;;;31.38;12.63;;;17.30;99.90;;;;;;5049866;28;20116;-46
2023/09/02 08:20:06;;;;;;;32.88;11.52;;;17.40;99.90;;;;;;5053453;28;20087;-53
2023/09/02 08:22:32;;;;;;;28.92;12.75;;;17.50;99.90;;;;;;5053443;28;20037;-53
2023/09/02 08:24:57;;;;;;;34.33;12.15;;;17.60;99.90;;;;;;5038972;28;20474;-53
2023/09/02 08:27:24;;;;;;;36.75;14.43;;;17.70;99.90;;;;;;5043596;28;20025;-53
2023/09/02 08:29:51;;;;;;;32.75;13.40;;;17.70;99.90;;;;;;5050392;28;20099;-53
2023/09/02 08:32:17;;;;;;;37.15;13.10;;;17.50;99.90;;;;;;5048576;28;20142;-54
2023/09/02 08:34:42;;;;;;;29.83;12.35;;;17.40;99.90;;;;;;5050327;28;20021;-53
2023/09/02 08:37:08;;;;;;;33.05;14.15;;;17.50;99.90;;;;;;5034935;28;20477;-54
2023/09/02 08:39:34;;;;;;;44.00;15.23;;;17.60;99.90;;;;;;5035254;28;20048;-50
2023/09/02 08:42:00;;;;;;;41.67;15.85;;;17.60;99.90;;;;;;5051194;28;20036;-53
2023/09/02 08:44:32;;;;;;;37.03;14.68;;;17.60;99.90;;;;;;5035548;28;20032;-51
2023/09/02 08:47:01;;;;;;;33.00;13.65;;;17.60;99.90;;;;;;5053865;28;20060;-53
2023/09/02 08:49:27;;;;;;;43.30;14.82;;;17.70;99.90;;;;;;5054191;28;20482;-53
2023/09/02 08:51:54;;;;;;;41.28;15.32;;;17.70;99.90;;;;;;5054062;28;20025;-50
2023/09/02 08:54:21;;;;;;;35.80;13.73;;;17.60;99.90;;;;;;5036276;28;20108;-53
2023/09/02 08:56:48;;;;;;;42.08;13.60;;;17.60;99.90;;;;;;5051888;28;20386;-52
2023/09/02 08:59:14;;;;;;;33.10;13.17;;;17.70;99.90;;;;;;5052337;28;20021;-50
2023/09/02 09:01:44;;;;;;;42.58;14.88;;;17.70;99.90;;;;;;5052111;28;20294;-49
2023/09/02 09:04:14;;;;;;;36.00;13.65;;;17.80;99.90;;;;;;5052279;28;20481;-52
2023/09/02 09:06:41;;;;;;;45.00;16.00;;;17.80;99.90;;;;;;5050324;28;20044;-50
2023/09/02 09:09:10;;;;;;;37.67;16.30;;;17.80;99.90;;;;;;5046889;28;20048;-54
2023/09/02 09:11:38;;;;;;;41.05;15.15;;;17.80;99.90;;;;;;5053886;28;20490;-54
2023/09/02 09:14:08;;;;;;;38.55;14.85;;;17.70;99.90;;;;;;5041799;28;20033;-51
2023/09/02 09:16:37;;;;;;;47.10;16.60;;;17.80;99.90;;;;;;5033846;28;20057;-54
2023/09/02 09:19:03;;;;;;;47.58;16.70;;;17.80;99.90;;;;;;5042487;28;20021;-52
2023/09/02 09:21:28;;;;;;;39.38;16.17;;;17.80;99.90;;;;;;5052688;28;20032;-52
2023/09/02 09:23:55;;;;;;;43.88;15.23;;;17.80;99.90;;;;;;5053774;28;20498;-54
2023/09/02 09:26:21;;;;;;;39.60;15.45;;;17.80;99.90;;;;;;5052400;28;20413;-48
2023/09/02 09:28:54;;;;;;;41.90;14.73;;;17.90;99.90;;;;;;5047555;28;20094;-53
2023/09/02 09:31:21;;;;;;;36.50;14.60;;;18.10;99.90;;;;;;5053121;28;20151;-52
2023/09/02 09:33:51;;;;;;;41.03;16.00;;;18.10;99.90;;;;;;5051239;28;20028;-54
2023/09/02 09:36:20;;;;;;;33.30;13.70;;;18.10;99.90;;;;;;5051001;28;20021;-53
2023/09/02 09:38:46;;;;;;;35.70;13.45;;;18.10;99.90;;;;;;5048150;28;20025;-53
2023/09/02 09:41:11;;;;;;;37.90;15.23;;;18.20;99.90;;;;;;5048748;28;20023;-53
2023/09/02 09:43:37;;;;;;;33.00;13.85;;;18.10;99.90;;;;;;5048329;28;20094;-52
2023/09/02 09:46:03;;;;;;;38.55;14.02;;;18.20;99.90;;;;;;5040159;28;20025;-52
2023/09/02 09:48:30;;;;;;;34.42;13.82;;;18.30;99.90;;;;;;5046237;28;20041;-53
2023/09/02 09:50:55;;;;;;;22.83;9.93;;;18.30;99.90;;;;;;5033330;28;20021;-54
2023/09/02 09:53:21;;;;;;;36.83;14.95;;;18.30;99.90;;;;;;5042021;28;20033;-54
2023/09/02 09:55:47;;;;;;;34.28;14.55;;;18.20;99.90;;;;;;5052072;28;20017;-53
2023/09/02 09:58:22;;;;;;;32.80;12.15;;;18.20;99.90;;;;;;5053296;28;20017;-54
2023/09/02 10:00:54;;;;;;;33.28;13.50;;;18.30;99.90;;;;;;5048591;28;20074;-52
2023/09/02 10:03:30;;;;;;;32.63;13.70;;;18.40;99.90;;;;;;5041792;28;20021;-50
2023/09/02 10:05:59;;;;;;;39.33;15.25;;;18.50;99.90;;;;;;5033317;28;20132;-52
2023/09/02 10:08:25;;;;;;;26.95;12.68;;;18.60;99.90;;;;;;5046633;28;20045;-53
2023/09/02 10:10:51;;;;;;;37.95;15.10;;;18.50;99.90;;;;;;5052399;28;20025;-53
2023/09/02 10:13:18;;;;;;;37.22;14.50;;;18.50;99.90;;;;;;5044039;28;20033;-50
2023/09/02 10:15:46;;;;;;;32.97;12.93;;;18.50;99.90;;;;;;5051503;28;20021;-51
2023/09/02 10:18:12;;;;;;;33.17;13.27;;;18.50;99.90;;;;;;5048709;28;20096;-54
2023/09/02 10:20:38;;;;;;;33.55;13.57;;;18.60;99.90;;;;;;5050091;28;20060;-54
2023/09/02 10:23:09;;;;;;;27.50;13.07;;;18.60;99.90;;;;;;5051593;28;20065;-53
2023/09/02 10:25:48;;;;;;;25.92;12.27;;;18.60;99.90;;;;;;5048999;28;20057;-52
2023/09/02 10:28:38;;;;;;;39.13;15.10;;;18.70;99.90;;;;;;5028496;28;20508;-53
2023/09/02 10:31:08;;;;;;;30.15;13.07;;;18.60;99.90;;;;;;5048104;28;20591;-51
2023/09/02 10:33:49;;;;;;;33.97;13.85;;;18.60;99.90;;;;;;5048458;28;20021;-39
2023/09/02 10:36:21;;;;;;;39.17;14.90;;;18.80;99.90;;;;;;5051541;28;20477;-40
2023/09/02 10:38:49;;;;;;;36.08;14.60;;;18.80;99.90;;;;;;5038608;28;20025;-40
2023/09/02 10:41:16;;;;;;;33.40;13.95;;;18.90;99.90;;;;;;5050756;28;20494;-41
2023/09/02 10:43:44;;;;;;;35.28;14.55;;;19.00;99.90;;;;;;5047688;28;20033;-39
2023/09/02 10:46:10;;;;;;;31.27;14.20;;;19.00;99.90;;;;;;5055252;28;20033;-39
2023/09/02 10:48:39;;;;;;;31.65;13.30;;;19.00;99.90;;;;;;5053479;28;20021;-41
2023/09/02 10:51:06;;;;;;;29.33;13.52;;;19.00;99.90;;;;;;5056152;28;20029;-44
2023/09/02 10:54:02;;;;;;;31.25;13.38;;;19.10;99.90;;;;;;5056575;28;20025;-41
2023/09/02 10:56:35;;;;;;;29.38;13.02;;;19.20;99.90;;;;;;5056415;28;20055;-40
2023/09/02 10:59:05;;;;;;;30.85;12.88;;;19.40;99.90;;;;;;5056645;28;20025;-38
2023/09/02 11:01:49;;;;;;;25.55;12.18;;;19.50;99.90;;;;;;5054837;28;20029;-40
2023/09/02 11:04:41;;;;;;;35.30;14.63;;;19.50;99.90;;;;;;5055463;28;20482;-42
2023/09/02 11:07:19;;;;;;;34.38;14.20;;;19.40;99.90;;;;;;5054946;28;20061;-40
2023/09/02 11:09:53;;;;;;;32.67;13.55;;;19.20;99.90;;;;;;5055968;28;20029;-40
2023/09/02 11:12:19;;;;;;;31.05;13.75;;;19.20;99.90;;;;;;5056286;28;20036;-41
2023/09/02 11:15:07;;;;;;;32.72;13.65;;;19.10;99.90;;;;;;5056208;28;20501;-43
2023/09/02 11:17:33;;;;;;;28.52;13.55;;;19.10;99.90;;;;;;5052997;28;20029;-41
2023/09/02 11:20:04;;;;;;;33.55;14.13;;;19.20;99.90;;;;;;5035990;28;20100;-43
2023/09/02 11:22:48;;;;;;;31.75;14.05;;;19.20;99.90;;;;;;5035974;28;20486;-39
2023/09/02 11:25:44;;;;;;;38.72;14.27;;;19.30;99.90;;;;;;5041260;28;20490;-40
2023/09/02 11:28:19;;;;;;;31.13;13.60;;;19.30;99.90;;;;;;5055621;28;20040;-42
2023/09/02 11:31:09;;;;;;;27.90;13.95;;;19.50;99.90;;;;;;5055263;28;20041;-40
2023/09/02 11:33:39;;;;;;;31.77;13.02;;;19.70;99.90;;;;;;5055422;28;20029;-39
2023/09/02 11:36:12;;;;;;;30.70;13.43;;;19.90;99.90;;;;;;5055662;28;20119;-40
2023/09/02 11:38:38;;;;;;;26.23;12.60;;;19.90;99.90;;;;;;5054644;28;20098;-41
2023/09/02 11:41:03;;;;;;;22.05;12.15;;;20.00;99.90;;;;;;5055539;28;20029;-39
2023/09/02 11:43:31;;;;;;;28.10;13.77;;;20.00;99.90;;;;;;5055481;28;20021;-40
2023/09/02 11:45:59;;;;;;;27.75;14.00;;;20.00;99.90;;;;;;5055425;28;20035;-41
2023/09/02 11:48:29;;;;;;;30.33;12.85;;;19.90;99.90;;;;;;5055501;28;20108;-42
2023/09/02 11:50:58;;;;;;;29.88;13.18;;;19.70;99.90;;;;;;5055651;28;20021;-39
2023/09/02 11:53:31;;;;;;;23.50;12.10;;;19.60;99.90;;;;;;5054449;28;20128;-42
2023/09/02 11:55:57;;;;;;;24.73;12.50;;;19.70;99.90;;;;;;5054335;28;20031;-39
2023/09/02 11:58:23;;;;;;;26.83;14.23;;;19.90;99.90;;;;;;5055228;28;20452;-40
2023/09/02 12:00:49;;;;;;;26.92;13.63;;;20.00;99.90;;;;;;5055358;28;20496;-40
2023/09/02 12:03:22;;;;;;;26.60;13.25;;;20.00;99.90;;;;;;5055386;28;20025;-46
2023/09/02 12:05:57;;;;;;;32.60;13.85;;;20.00;99.90;;;;;;5055047;28;20036;-39
2023/09/02 12:08:23;;;;;;;30.20;14.13;;;20.10;99.90;;;;;;5055023;28;20037;-42
2023/09/02 12:10:49;;;;;;;31.70;14.25;;;20.20;99.90;;;;;;5054907;28;20600;-40
2023/09/02 12:13:16;;;;;;;27.88;13.20;;;20.40;99.90;;;;;;5053946;28;20044;-40
2023/09/02 12:15:47;;;;;;;26.85;12.90;;;20.60;99.90;;;;;;5054899;28;20106;-38
2023/09/02 12:18:13;;;;;;;21.77;12.18;;;20.90;99.90;;;;;;5054994;28;20355;-37
2023/09/02 12:20:39;;;;;;;25.92;13.38;;;21.10;99.90;;;;;;5053942;28;20021;-39
2023/09/02 12:23:05;;;;;;;23.80;12.60;;;21.10;99.90;;;;;;5053665;28;20482;-39
2023/09/02 12:25:33;;;;;;;20.87;10.97;;;21.10;99.90;;;;;;5053582;28;20028;-40
2023/09/02 12:28:10;;;;;;;28.23;12.07;;;20.80;99.90;;;;;;5053908;28;20024;-39
2023/09/02 12:30:36;;;;;;;22.20;12.38;;;20.70;99.90;;;;;;5035333;28;20047;-42